createdAt,value
2022-11-20T00:02:31.023Z,10.60
2022-11-20T00:05:25.256Z,10.77
2022-11-20T00:08:01.274Z,11.18
2022-11-20T00:10:39.053Z,11.27
2022-11-20T00:13:27.322Z,11.68
2022-11-20T00:16:16.325Z,12.57
2022-11-20T00:18:55.396Z,13.02
2022-11-20T00:21:45.621Z,13.35
2022-11-20T00:24:32.598Z,13.40
2022-11-20T00:27:16.165Z,14.07
2022-11-20T00:30:22.330Z,13.88
2022-11-20T00:33:12.424Z,14.57
2022-11-20T00:39:02.371Z,16.25
2022-11-20T00:41:48.208Z,14.80
2022-11-20T00:47:19.472Z,14.50
2022-11-20T00:50:21.488Z,13.15
2022-11-20T00:53:10.531Z,13.57
2022-11-20T00:56:03.887Z,12.70
2022-11-20T00:58:49.052Z,13.32
2022-11-20T01:01:28.914Z,13.45
2022-11-20T01:04:12.630Z,13.48
2022-11-20T01:06:57.118Z,14.15
2022-11-20T01:09:40.895Z,13.57
2022-11-20T01:12:23.860Z,14.57
2022-11-20T01:15:17.653Z,15.05
2022-11-20T01:18:21.177Z,14.45
2022-11-20T01:21:14.539Z,16.15
2022-11-20T01:24:03.296Z,16.00
2022-11-20T01:26:44.282Z,14.90
2022-11-20T01:29:36.095Z,13.20
2022-11-20T01:32:20.324Z,13.55
2022-11-20T01:35:02.375Z,11.57
2022-11-20T01:37:46.001Z,12.32
2022-11-20T01:40:40.332Z,12.13
2022-11-20T01:43:41.912Z,12.38
2022-11-20T01:46:32.415Z,11.95
2022-11-20T01:49:10.487Z,10.63
2022-11-20T01:51:58.437Z,10.68
2022-11-20T01:54:42.006Z,10.55
2022-11-20T01:57:17.196Z,9.80
2022-11-20T02:00:06.507Z,9.68
2022-11-20T02:02:59.576Z,13.18
2022-11-20T02:05:54.946Z,16.55
2022-11-20T02:08:31.817Z,17.90
2022-11-20T02:11:25.663Z,12.10
2022-11-20T02:14:09.423Z,9.73
2022-11-20T02:16:44.408Z,8.70
2022-11-20T02:19:30.806Z,9.57
2022-11-20T02:22:14.627Z,10.27
2022-11-20T02:25:06.722Z,10.15
2022-11-20T02:27:44.565Z,10.60
2022-11-20T02:30:21.539Z,11.20
2022-11-20T02:33:17.819Z,10.18
2022-11-20T02:36:25.080Z,10.07
2022-11-20T02:39:31.520Z,9.73
2022-11-20T02:42:15.313Z,9.70
2022-11-20T02:45:03.279Z,9.57
2022-11-20T02:51:02.030Z,8.25
2022-11-20T02:53:38.035Z,6.50
2022-11-20T02:56:44.773Z,6.38
2022-11-20T02:59:36.056Z,5.85
2022-11-20T03:02:14.916Z,5.78
2022-11-20T03:04:51.473Z,8.32
2022-11-20T03:07:37.954Z,7.00
2022-11-20T03:13:55.881Z,5.97
2022-11-20T03:16:38.675Z,6.47
2022-11-20T03:19:17.254Z,6.95
2022-11-20T03:21:59.014Z,7.00
2022-11-20T03:24:49.366Z,9.82
2022-11-20T03:30:23.941Z,7.40
2022-11-20T03:33:25.930Z,8.93
2022-11-20T03:36:19.623Z,6.97
2022-11-20T03:39:03.218Z,7.72
2022-11-20T03:41:56.591Z,9.48
2022-11-20T03:44:31.523Z,42.80
2022-11-20T03:47:25.662Z,29.50
2022-11-20T03:50:12.186Z,27.20
2022-11-20T03:52:57.752Z,15.18
2022-11-20T03:55:50.267Z,16.42
2022-11-20T03:58:44.341Z,9.85
2022-11-20T04:01:24.429Z,7.50
2022-11-20T04:10:00.478Z,5.03
2022-11-20T04:12:46.862Z,8.25
2022-11-20T04:15:28.447Z,6.18
2022-11-20T04:18:06.239Z,5.68
2022-11-20T04:20:57.319Z,5.50
2022-11-20T04:23:51.790Z,5.07
2022-11-20T04:26:26.252Z,5.05
2022-11-20T04:29:17.487Z,5.13
2022-11-20T04:32:20.053Z,13.30
2022-11-20T04:35:00.797Z,7.85
2022-11-20T04:37:43.848Z,7.78
2022-11-20T04:40:33.071Z,5.13
2022-11-20T04:43:18.745Z,24.02
2022-11-20T04:46:06.216Z,8.60
2022-11-20T04:49:10.992Z,6.10
2022-11-20T04:52:05.971Z,5.70
2022-11-20T04:57:43.994Z,6.00
2022-11-20T05:00:22.655Z,7.28
2022-11-20T05:03:08.219Z,6.78
2022-11-20T05:05:54.900Z,6.40
2022-11-20T05:08:42.834Z,8.63
2022-11-20T05:11:24.293Z,9.32
2022-11-20T05:14:16.157Z,7.38
2022-11-20T05:17:08.871Z,6.13
2022-11-20T05:19:59.889Z,5.60
2022-11-20T05:22:47.628Z,18.85
2022-11-20T05:25:37.406Z,10.25
2022-11-20T05:28:13.427Z,6.38
2022-11-20T05:31:30.741Z,6.18
2022-11-20T05:34:17.362Z,5.47
2022-11-20T05:36:58.601Z,6.28
2022-11-20T05:39:41.576Z,6.07
2022-11-20T05:42:40.767Z,5.93
2022-11-20T05:45:35.508Z,5.28
2022-11-20T05:48:29.682Z,5.93
2022-11-20T05:51:06.854Z,6.40
2022-11-20T05:53:48.268Z,5.68
2022-11-20T05:56:34.889Z,5.28
2022-11-20T05:59:22.106Z,5.88
2022-11-20T06:02:07.412Z,25.58
2022-11-20T06:05:33.533Z,24.35
2022-11-20T06:08:19.679Z,6.68
2022-11-20T06:10:55.965Z,5.95
2022-11-20T06:13:42.812Z,6.28
2022-11-20T06:16:42.622Z,4.93
2022-11-20T06:19:33.869Z,5.82
2022-11-20T06:22:08.574Z,5.47
2022-11-20T06:28:25.866Z,24.50
2022-11-20T06:31:01.876Z,34.17
2022-11-20T06:33:49.427Z,30.02
2022-11-20T06:36:51.548Z,19.23
2022-11-20T06:39:40.868Z,7.75
2022-11-20T06:42:30.843Z,8.40
2022-11-20T06:47:49.223Z,75.53
2022-11-20T06:50:38.696Z,28.17
2022-11-20T06:53:33.078Z,19.33
2022-11-20T06:56:09.867Z,42.20
2022-11-20T06:59:11.062Z,27.80
2022-11-20T07:01:51.846Z,14.70
2022-11-20T07:04:40.546Z,13.10
2022-11-20T07:07:23.281Z,11.95
2022-11-20T07:10:01.377Z,10.60
2022-11-20T07:12:49.027Z,8.68
2022-11-20T07:15:26.410Z,7.47
2022-11-20T07:18:18.093Z,6.90
2022-11-20T07:20:57.127Z,6.85
2022-11-20T07:23:48.171Z,8.70
2022-11-20T07:26:22.897Z,8.95
2022-11-20T07:29:09.005Z,12.05
2022-11-20T07:34:51.525Z,8.73
2022-11-20T07:37:38.849Z,9.93
2022-11-20T07:40:47.830Z,9.85
2022-11-20T07:43:54.854Z,11.65
2022-11-20T07:46:38.897Z,15.88
2022-11-20T07:49:24.904Z,16.48
2022-11-20T07:52:10.611Z,11.93
2022-11-20T07:55:13.445Z,10.38
2022-11-20T07:58:23.897Z,14.25
2022-11-20T08:01:19.948Z,21.38
2022-11-20T08:04:13.036Z,11.55
2022-11-20T08:07:00.723Z,10.07
2022-11-20T08:09:51.124Z,7.82
2022-11-20T08:16:00.239Z,8.73
2022-11-20T08:18:39.862Z,7.82
2022-11-20T08:21:25.934Z,8.10
2022-11-20T08:24:04.875Z,10.02
2022-11-20T08:26:49.669Z,14.75
2022-11-20T08:29:54.271Z,13.15
2022-11-20T08:32:38.432Z,17.55
2022-11-20T08:35:25.633Z,15.52
2022-11-20T08:38:16.337Z,12.93
2022-11-20T08:41:21.959Z,13.23
2022-11-20T08:44:19.592Z,14.23
2022-11-20T08:47:18.133Z,9.70
2022-11-20T08:56:15.424Z,9.27
2022-11-20T08:59:44.017Z,7.50
2022-11-20T09:02:19.226Z,10.63
2022-11-20T09:08:18.670Z,11.20
2022-11-20T09:11:22.523Z,14.00
2022-11-20T09:14:16.738Z,10.52
2022-11-20T09:17:04.427Z,18.15
2022-11-20T09:19:55.641Z,11.38
2022-11-20T09:22:44.259Z,11.20
2022-11-20T09:25:38.409Z,19.77
2022-11-20T09:32:17.355Z,7.32
2022-11-20T09:34:55.905Z,9.73
2022-11-20T09:37:31.339Z,8.20
2022-11-20T09:40:15.707Z,9.25
2022-11-20T09:42:59.500Z,6.78
2022-11-20T09:45:51.489Z,6.32
2022-11-20T09:49:13.116Z,6.97
2022-11-20T09:52:08.103Z,8.75
2022-11-20T09:54:46.398Z,9.65
2022-11-20T10:00:26.764Z,8.13
2022-11-20T10:03:12.474Z,6.68
2022-11-20T10:06:08.467Z,9.38
2022-11-20T10:09:10.569Z,7.22
2022-11-20T10:12:33.416Z,6.95
2022-11-20T10:15:50.803Z,7.00
2022-11-20T10:22:21.140Z,7.00
2022-11-20T10:25:32.742Z,9.60
2022-11-20T10:28:39.673Z,7.60
2022-11-20T10:34:26.992Z,6.93
2022-11-20T10:37:11.635Z,7.32
2022-11-20T10:40:06.026Z,7.80
2022-11-20T10:43:00.152Z,7.30
2022-11-20T10:46:06.414Z,8.05
2022-11-20T10:48:58.833Z,6.95
2022-11-20T10:51:45.977Z,7.05
2022-11-20T10:54:39.917Z,6.82
2022-11-20T10:57:35.150Z,6.80
2022-11-20T11:00:27.961Z,6.90
2022-11-20T11:03:14.366Z,7.10
2022-11-20T11:06:10.535Z,7.07
2022-11-20T11:09:16.451Z,7.40
2022-11-20T11:12:06.843Z,9.27
2022-11-20T11:15:14.912Z,10.35
2022-11-20T11:18:04.854Z,8.57
2022-11-20T11:23:50.372Z,7.78
2022-11-20T11:26:33.138Z,6.20
2022-11-20T11:29:14.480Z,6.72
2022-11-20T11:35:09.445Z,8.35
2022-11-20T11:41:15.163Z,7.22
2022-11-20T11:44:18.309Z,8.60
2022-11-20T11:50:33.548Z,7.55
2022-11-20T11:53:22.739Z,8.32
2022-11-20T11:56:22.354Z,7.05
2022-11-20T11:59:04.850Z,7.07
2022-11-20T12:02:01.999Z,9.38
2022-11-20T12:04:59.323Z,9.65
2022-11-20T12:08:17.944Z,8.85
2022-11-20T12:11:13.367Z,10.93
2022-11-20T12:14:02.416Z,8.73
2022-11-20T12:16:45.939Z,12.20
2022-11-20T12:19:52.084Z,10.43
2022-11-20T12:22:52.584Z,8.68
2022-11-20T12:25:49.070Z,7.60
2022-11-20T12:29:21.995Z,8.35
2022-11-20T12:32:42.762Z,6.30
2022-11-20T12:35:47.091Z,9.40
2022-11-20T12:42:25.976Z,7.82
2022-11-20T12:45:47.724Z,8.93
2022-11-20T12:49:07.430Z,7.90
2022-11-20T12:52:10.681Z,7.20
2022-11-20T12:55:34.703Z,6.85
2022-11-20T12:58:28.510Z,7.05
2022-11-20T13:01:45.289Z,6.78
2022-11-20T13:04:44.444Z,6.15
2022-11-20T13:10:44.053Z,6.25
2022-11-20T13:13:28.328Z,8.10
2022-11-20T13:19:33.310Z,13.75
2022-11-20T13:22:20.079Z,11.55
2022-11-20T13:25:15.170Z,11.52
2022-11-20T13:28:09.935Z,11.95
2022-11-20T13:31:08.618Z,9.60
2022-11-20T13:34:04.206Z,9.95
2022-11-20T13:37:08.238Z,9.45
2022-11-20T13:39:58.052Z,9.00
2022-11-20T13:42:59.774Z,10.82
2022-11-20T13:45:45.237Z,10.88
2022-11-20T13:49:07.153Z,9.68
2022-11-20T13:52:01.830Z,7.60
2022-11-20T13:55:21.235Z,6.35
2022-11-20T13:58:23.967Z,7.47
2022-11-20T14:01:19.590Z,7.20
2022-11-20T14:04:07.195Z,6.93
2022-11-20T14:07:10.014Z,7.93
2022-11-20T14:10:03.575Z,7.43
2022-11-20T14:12:47.888Z,6.97
2022-11-20T14:16:17.916Z,6.45
2022-11-20T14:18:46.793Z,5.50
2022-11-20T14:21:57.731Z,5.90
2022-11-20T14:24:36.565Z,5.70
2022-11-20T14:30:34.293Z,4.93
2022-11-20T14:33:12.029Z,5.22
2022-11-20T14:35:56.491Z,5.30
2022-11-20T14:38:52.849Z,5.60
2022-11-20T14:41:34.158Z,4.65
2022-11-20T14:44:33.901Z,4.90
2022-11-20T14:47:18.703Z,4.67
2022-11-20T14:50:19.970Z,5.65
2022-11-20T14:53:02.886Z,4.90
2022-11-20T14:56:14.032Z,5.03
2022-11-20T14:58:52.229Z,5.38
2022-11-20T15:01:46.526Z,4.97
2022-11-20T15:04:26.874Z,5.40
2022-11-20T15:07:18.715Z,4.93
2022-11-20T15:10:14.427Z,4.70
2022-11-20T15:13:12.727Z,4.68
2022-11-20T15:16:13.859Z,5.38
2022-11-20T15:18:58.553Z,5.40
2022-11-20T15:21:43.917Z,5.10
2022-11-20T15:24:28.943Z,5.25
2022-11-20T15:27:09.109Z,5.55
2022-11-20T15:30:00.600Z,4.80
2022-11-20T15:32:50.542Z,5.40
2022-11-20T15:35:38.018Z,5.68
2022-11-20T15:38:21.738Z,5.93
2022-11-20T15:41:01.458Z,6.53
2022-11-20T15:43:49.143Z,5.68
2022-11-20T15:46:52.467Z,5.38
2022-11-20T15:49:52.235Z,6.10
2022-11-20T15:52:44.507Z,5.90
2022-11-20T15:55:28.538Z,5.30
2022-11-20T15:58:11.535Z,5.45
2022-11-20T16:00:48.961Z,5.43
2022-11-20T16:04:01.324Z,5.88
2022-11-20T16:06:40.125Z,6.57
2022-11-20T16:09:18.749Z,6.78
2022-11-20T16:11:57.532Z,7.03
2022-11-20T16:14:58.889Z,5.97
2022-11-20T16:23:26.802Z,6.75
2022-11-20T16:26:21.528Z,6.63
2022-11-20T16:29:00.231Z,7.38
2022-11-20T16:31:52.952Z,6.05
2022-11-20T16:34:41.335Z,6.22
2022-11-20T16:37:35.297Z,6.55
2022-11-20T16:40:37.499Z,6.45
2022-11-20T16:46:23.046Z,5.60
2022-11-20T16:52:17.123Z,6.38
2022-11-20T16:55:04.590Z,6.93
2022-11-20T16:57:56.778Z,7.78
2022-11-20T17:00:51.426Z,7.68
2022-11-20T17:03:48.728Z,7.38
2022-11-20T17:06:51.318Z,8.75
2022-11-20T17:09:45.709Z,7.73
2022-11-20T17:15:45.298Z,7.75
2022-11-20T17:18:38.794Z,7.28
2022-11-20T17:21:32.276Z,6.85
2022-11-20T17:24:18.940Z,7.35
2022-11-20T17:27:05.474Z,7.03
2022-11-20T17:32:54.731Z,6.10
2022-11-20T17:35:49.903Z,5.35
2022-11-20T17:38:27.693Z,5.55
2022-11-20T17:41:16.166Z,4.97
2022-11-20T17:43:55.348Z,4.93
2022-11-20T17:46:45.119Z,4.88
2022-11-20T17:49:41.573Z,5.20
2022-11-20T17:52:27.875Z,4.57
2022-11-20T17:55:25.902Z,5.50
2022-11-20T17:58:10.747Z,6.22
2022-11-20T18:00:54.406Z,6.43
2022-11-20T18:03:45.971Z,7.07
2022-11-20T18:06:33.088Z,7.75
2022-11-20T18:09:48.006Z,7.93
2022-11-20T18:12:42.830Z,7.38
2022-11-20T18:15:28.515Z,6.50
2022-11-20T18:18:16.667Z,7.13
2022-11-20T18:21:05.190Z,6.95
2022-11-20T18:23:56.737Z,6.30
2022-11-20T18:26:52.231Z,5.60
2022-11-20T18:29:29.616Z,5.90
2022-11-20T18:32:15.951Z,5.60
2022-11-20T18:35:13.823Z,5.70
2022-11-20T18:37:57.403Z,5.50
2022-11-20T18:40:42.745Z,5.70
2022-11-20T18:43:40.263Z,5.30
2022-11-20T18:46:16.040Z,5.43
2022-11-20T18:48:55.185Z,5.50
2022-11-20T18:51:33.245Z,5.65
2022-11-20T18:54:34.481Z,4.90
2022-11-20T18:57:14.601Z,5.20
2022-11-20T19:00:06.416Z,4.97
2022-11-20T19:03:04.015Z,5.53
2022-11-20T19:06:13.726Z,5.05
2022-11-20T19:09:00.224Z,5.30
2022-11-20T19:12:02.680Z,5.13
2022-11-20T19:14:52.598Z,5.22
2022-11-20T19:20:23.281Z,5.47
2022-11-20T19:23:26.872Z,5.40
2022-11-20T19:26:30.151Z,5.30
2022-11-20T19:29:25.049Z,4.68
2022-11-20T19:32:20.345Z,4.50
2022-11-20T19:34:56.856Z,5.10
2022-11-20T19:37:34.593Z,4.40
2022-11-20T19:40:27.863Z,5.50
2022-11-20T19:43:16.367Z,4.88
2022-11-20T19:46:09.313Z,4.40
2022-11-20T19:49:05.478Z,4.10
2022-11-20T19:51:45.163Z,3.92
2022-11-20T19:54:22.975Z,5.13
2022-11-20T19:57:06.249Z,4.00
2022-11-20T19:59:59.230Z,4.80
2022-11-20T20:02:49.007Z,4.47
2022-11-20T20:08:06.416Z,4.00
2022-11-20T20:10:44.559Z,4.55
2022-11-20T20:13:30.091Z,3.97
2022-11-20T20:16:16.206Z,4.82
2022-11-20T20:19:03.735Z,5.47
2022-11-20T20:21:50.123Z,4.97
2022-11-20T20:24:49.336Z,13.23
2022-11-20T20:27:38.529Z,11.60
2022-11-20T20:30:24.900Z,5.22
2022-11-20T20:33:02.661Z,5.40
2022-11-20T20:38:42.258Z,6.97
2022-11-20T20:41:30.587Z,5.35
2022-11-20T20:44:24.092Z,6.90
2022-11-20T20:47:28.862Z,5.13
2022-11-20T20:50:14.006Z,5.07
2022-11-20T20:53:01.643Z,4.57
2022-11-20T20:55:46.946Z,5.50
2022-11-20T20:58:36.578Z,5.15
2022-11-20T21:01:39.204Z,4.75
2022-11-20T21:04:34.110Z,4.65
2022-11-20T21:07:18.911Z,5.03
2022-11-20T21:10:04.292Z,5.40
2022-11-20T21:12:58.074Z,4.90
2022-11-20T21:15:40.635Z,4.60
2022-11-20T21:18:22.633Z,4.78
2022-11-20T21:21:19.674Z,4.90
2022-11-20T21:23:59.583Z,9.02
2022-11-20T21:26:59.367Z,9.95
2022-11-20T21:29:38.785Z,11.57
2022-11-20T21:32:27.393Z,9.18
2022-11-20T21:35:32.074Z,10.30
2022-11-20T21:38:14.740Z,18.45
2022-11-20T21:40:54.891Z,12.35
2022-11-20T21:44:23.575Z,12.25
2022-11-20T21:47:10.355Z,11.57
2022-11-20T21:50:12.350Z,8.27
2022-11-20T21:52:57.216Z,8.13
2022-11-20T21:55:49.456Z,9.77
2022-11-20T21:58:40.196Z,12.60
2022-11-20T22:04:34.444Z,11.02
2022-11-20T22:07:36.033Z,11.82
2022-11-20T22:10:21.466Z,12.35
2022-11-20T22:13:28.101Z,16.60
2022-11-20T22:16:11.250Z,13.93
2022-11-20T22:19:01.620Z,14.98
2022-11-20T22:21:35.679Z,15.75
2022-11-20T22:24:27.192Z,13.35
2022-11-20T22:27:10.484Z,14.82
2022-11-20T22:30:14.061Z,14.27
2022-11-20T22:33:13.277Z,15.45
2022-11-20T22:38:56.919Z,16.83
2022-11-20T22:41:56.289Z,15.45
2022-11-20T22:47:55.373Z,17.67
2022-11-20T22:51:03.620Z,25.10
2022-11-20T22:53:51.774Z,19.75
2022-11-20T22:59:16.008Z,21.50
2022-11-20T23:02:30.224Z,15.55
2022-11-20T23:05:09.475Z,18.73
2022-11-20T23:07:48.237Z,16.38
2022-11-20T23:10:42.811Z,22.77
2022-11-20T23:13:29.744Z,23.00
2022-11-20T23:16:14.029Z,24.70
2022-11-20T23:19:10.416Z,16.15
2022-11-20T23:21:49.111Z,19.08
2022-11-20T23:24:46.152Z,18.88
2022-11-20T23:30:16.710Z,14.88
2022-11-20T23:32:54.665Z,12.27
2022-11-20T23:35:41.183Z,12.90
2022-11-20T23:38:19.696Z,13.40
2022-11-20T23:40:56.488Z,15.48
2022-11-20T23:43:48.034Z,13.80
2022-11-20T23:46:45.667Z,13.13
2022-11-20T23:49:22.759Z,14.73
2022-11-20T23:52:06.310Z,11.60
2022-11-20T23:55:31.432Z,13.25
2022-11-20T23:58:13.914Z,15.43
